Time;durP1;ratioP1;P1;durP2;ratioP2;P2;SDS_P1;SDS_P2;PMS_P1;PMS_P2;Temp;Humidity;BMP_temperature;BMP_pressure;BME280_temperature;BME280_humidity;BME280_pressure;Samples;Min_cycle;Max_cycle;Signal;HPM_P1;HPM_P2
2022/10/07 00:01:53;;;;;;;2.67;1.25;;;12.40;50.50;;;11.50;50.08;102588.91;12257907;19;20460;-87
2022/10/07 00:06:16;;;;;;;1.63;1.15;;;12.40;50.40;;;11.21;50.27;102559.25;12259863;19;20057;-88
2022/10/07 00:10:17;;;;;;;1.88;1.10;;;12.30;50.40;;;11.43;49.94;102603.94;12254926;19;20012;-87
2022/10/07 00:14:19;;;;;;;1.40;1.23;;;12.30;50.40;;;11.29;50.32;102586.03;12258916;19;20050;-88
2022/10/07 00:18:21;;;;;;;1.52;1.40;;;12.40;50.50;;;11.16;50.30;102568.13;12254463;19;20469;-88
2022/10/07 00:22:23;;;;;;;6.75;1.50;;;12.30;50.50;;;11.15;50.09;102584.69;12256705;19;20006;-87
2022/10/07 00:26:29;;;;;;;1.63;1.17;;;12.30;50.50;;;11.03;50.14;102576.28;12262739;19;20403;-88
2022/10/07 00:30:30;;;;;;;1.33;1.23;;;12.00;50.50;;;11.08;50.06;102599.69;12261214;19;20539;-87
2022/10/07 00:34:32;;;;;;;1.35;1.15;;;12.10;50.60;;;10.98;50.24;102590.38;12267592;19;20006;-88
2022/10/07 00:38:34;;;;;;;1.40;1.20;;;11.90;50.50;;;10.52;50.28;102521.91;12265193;19;20018;-87
2022/10/07 00:42:37;;;;;;;1.05;0.95;;;12.00;50.60;;;10.82;50.47;102582.09;12266588;19;20031;-88
2022/10/07 00:46:39;;;;;;;4.47;2.05;;;11.90;50.70;;;10.54;50.35;102527.09;12266749;19;20013;-88
2022/10/07 00:50:41;;;;;;;1.65;1.45;;;11.70;50.70;;;10.73;50.36;102572.75;12261719;19;20421;-88
2022/10/07 00:54:44;;;;;;;2.30;1.75;;;11.60;50.60;;;10.13;50.46;102467.16;12264064;19;20018;-87
2022/10/07 00:58:47;;;;;;;2.55;1.42;;;11.60;50.60;;;10.27;50.39;102494.69;12261874;19;20375;-87
2022/10/07 01:02:49;;;;;;;1.70;1.25;;;11.50;50.60;;;10.22;50.45;102509.59;12259206;19;20025;-87
2022/10/07 01:06:51;;;;;;;1.50;1.20;;;11.40;50.50;;;10.47;50.55;102549.03;12256237;19;20081;-86
2022/10/07 01:11:12;;;;;;;1.48;1.38;;;11.60;50.60;;;10.37;50.65;102549.28;12250151;19;20027;-87
2022/10/07 01:15:44;;;;;;;1.58;1.38;;;11.50;50.70;;;10.35;50.61;102545.84;12258748;19;20014;-87
2022/10/07 01:20:30;;;;;;;2.28;1.77;;;11.20;50.60;;;10.29;50.55;102548.63;12256463;19;20023;-87
2022/10/07 01:25:11;;;;;;;1.33;1.23;;;11.20;50.70;;;10.00;50.71;102496.22;12252849;19;20014;-87
2022/10/07 01:29:22;;;;;;;2.05;1.40;;;11.10;50.60;;;10.05;50.54;102517.84;12253301;19;20034;-87
2022/10/07 01:33:31;;;;;;;1.20;1.20;;;11.00;50.60;;;10.05;50.55;102515.25;12254733;19;20018;-87
2022/10/07 01:37:39;;;;;;;2.00;1.25;;;10.90;50.60;;;9.93;50.70;102511.16;12262104;19;20010;-87
2022/10/07 01:41:41;;;;;;;1.83;1.33;;;10.90;50.60;;;9.79;50.63;102493.22;12262974;19;20019;-87
2022/10/07 01:45:42;;;;;;;1.67;1.27;;;11.10;50.70;;;9.86;50.65;102509.59;12264018;19;20013;-87
2022/10/07 01:49:44;;;;;;;1.60;1.50;;;10.80;50.70;;;9.74;50.76;102495.06;12261848;19;20073;-87
2022/10/07 01:54:33;;;;;;;1.65;1.20;;;10.70;50.60;;;9.74;50.84;102510.72;12265587;19;20014;-88
2022/10/07 01:58:53;;;;;;;1.83;1.27;;;10.70;50.80;;;9.69;50.79;102504.75;12271348;19;20023;-88
2022/10/07 02:03:37;;;;;;;1.38;1.27;;;10.60;50.70;;;9.59;50.90;102500.66;12267338;19;20014;-88
2022/10/07 02:08:15;;;;;;;1.45;1.17;;;10.60;50.80;;;9.51;50.81;102495.63;12267190;19;20018;-88
2022/10/07 02:12:30;;;;;;;1.27;1.17;;;10.50;50.70;;;9.08;50.78;102450.47;12264588;19;20017;-87
2022/10/07 02:16:45;;;;;;;1.40;1.30;;;10.60;50.80;;;9.20;50.75;102467.59;12264625;19;20014;-88
2022/10/07 02:20:51;;;;;;;6.80;1.65;;;10.30;50.80;;;9.01;50.86;102435.84;12263021;19;20471;-88
2022/10/07 02:24:57;;;;;;;1.75;1.42;;;10.20;50.80;;;8.92;51.05;102424.78;12262036;19;20035;-88
2022/10/07 02:29:06;;;;;;;1.77;1.40;;;10.50;51.00;;;8.94;50.89;102438.59;12259344;19;20094;-88
2022/10/07 02:33:10;;;;;;;3.63;1.40;;;10.10;50.80;;;8.86;50.71;102425.75;12261512;19;20069;-88
2022/10/07 02:37:24;;;;;;;3.65;1.45;;;10.40;51.10;;;9.16;51.13;102480.72;12262604;19;20042;-88
2022/10/07 02:41:39;;;;;;;1.60;1.50;;;10.10;50.90;;;9.03;50.94;102461.88;12258116;19;20480;-88
2022/10/07 02:46:00;;;;;;;1.77;1.30;;;10.10;50.90;;;8.68;51.12;102406.16;12261608;19;19998;-88
2022/10/07 02:50:09;;;;;;;1.45;1.17;;;10.10;50.90;;;8.73;50.93;102432.09;12257934;19;20011;-87
2022/10/07 02:54:17;;;;;;;1.52;1.42;;;9.90;50.80;;;8.93;50.93;102466.41;12261801;19;20062;-89
2022/10/07 02:58:24;;;;;;;2.15;1.67;;;9.80;50.90;;;8.87;51.11;102458.72;12260003;19;20042;-87
2022/10/07 03:02:35;;;;;;;1.50;1.40;;;9.90;51.00;;;8.81;50.98;102454.50;12261915;19;20015;-87
2022/10/07 03:06:37;;;;;;;2.35;1.20;;;9.80;51.30;;;8.72;51.14;102439.06;12262779;19;20021;-87
2022/10/07 03:10:39;;;;;;;3.10;1.77;;;9.80;50.90;;;8.75;51.18;102456.34;12258651;19;20444;-88
2022/10/07 03:14:43;;;;;;;1.90;1.48;;;10.00;51.00;;;8.68;51.22;102450.41;12260754;19;20460;-87
2022/10/07 03:18:46;;;;;;;1.92;1.40;;;9.70;50.90;;;8.29;51.21;102394.72;12257719;19;20007;-87
2022/10/07 03:22:54;;;;;;;1.67;1.48;;;9.70;50.90;;;8.53;51.01;102445.50;12255223;19;20026;-87
2022/10/07 03:26:56;;;;;;;4.85;1.48;;;9.60;50.90;;;8.50;51.28;102438.59;12260348;19;20014;-87
2022/10/07 03:31:10;;;;;;;2.83;1.20;;;9.50;50.90;;;8.45;51.33;102437.81;12256158;19;20579;-87
2022/10/07 03:35:17;;;;;;;2.85;1.30;;;9.50;51.00;;;8.20;51.15;102400.97;12260048;19;20018;-87
2022/10/07 03:39:19;;;;;;;1.80;1.50;;;9.40;51.00;;;8.34;51.33;102427.56;12258075;19;20070;-87
2022/10/07 03:43:22;;;;;;;2.55;1.25;;;9.40;51.00;;;8.20;51.30;102413.97;12255141;19;20476;-87
2022/10/07 03:47:26;;;;;;;1.30;1.20;;;9.60;51.10;;;8.20;51.51;102404.41;12254574;19;20029;-87
2022/10/07 03:51:28;;;;;;;1.30;1.20;;;9.30;51.10;;;8.35;51.48;102415.44;12249418;19;20030;-87
2022/10/07 03:55:30;;;;;;;1.77;1.50;;;9.30;51.20;;;7.91;51.34;102337.31;12252554;19;20063;-87
2022/10/07 03:59:32;;;;;;;1.35;1.25;;;9.30;51.20;;;8.19;51.60;102388.84;12248809;19;20107;-88
2022/10/07 04:03:34;;;;;;;1.50;1.40;;;9.70;51.30;;;8.34;51.32;102414.56;12261587;19;20018;-88
2022/10/07 04:07:35;;;;;;;1.70;1.27;;;9.50;51.10;;;8.09;51.40;102372.53;12257015;19;20394;-88
2022/10/07 04:11:40;;;;;;;1.35;1.30;;;9.30;51.00;;;8.15;51.51;102384.56;12250996;19;20014;-87
2022/10/07 04:15:46;;;;;;;1.48;1.15;;;9.60;51.10;;;8.30;51.62;102409.47;12257466;19;20011;-87
2022/10/07 04:19:48;;;;;;;2.00;1.90;;;9.30;51.00;;;8.13;51.73;102382.00;12252744;19;20007;-87
2022/10/07 04:23:51;;;;;;;1.52;1.42;;;9.30;51.00;;;8.27;51.63;102402.56;12252591;19;20006;-87
2022/10/07 04:27:55;;;;;;;1.40;1.25;;;9.50;51.00;;;8.04;51.67;102363.09;12250901;19;20019;-87
2022/10/07 04:31:58;;;;;;;;;;;9.30;50.90;;;8.09;51.60;102379.47;12245193;19;20014;-88
2022/10/07 04:36:07;;;;;;;0.95;0.90;;;9.30;50.80;;;8.18;51.64;102392.31;12250962;19;19924;-87
2022/10/07 04:40:13;;;;;;;1.38;1.25;;;9.30;50.80;;;8.00;51.73;102358.84;12249460;19;20006;-87
2022/10/07 04:44:15;;;;;;;1.77;1.40;;;9.30;50.80;;;8.08;51.53;102376.03;12252060;19;20043;-87
2022/10/07 04:48:27;;;;;;;3.78;1.65;;;9.20;50.80;;;7.75;51.64;102325.47;12249747;19;20031;-87
2022/10/07 04:52:30;;;;;;;1.60;1.33;;;9.20;50.90;;;7.83;51.63;102331.41;12250333;19;20342;-86
2022/10/07 04:56:33;;;;;;;1.70;1.40;;;9.20;50.90;;;7.75;51.74;102315.94;12250487;19;20033;-87
2022/10/07 05:00:45;;;;;;;1.25;1.25;;;9.50;51.10;;;8.16;51.81;102381.09;12247955;19;20010;-87
2022/10/07 05:04:47;;;;;;;1.73;1.50;;;9.20;51.00;;;7.49;51.76;102259.19;12248640;19;20014;-87
2022/10/07 05:08:51;;;;;;;2.40;1.45;;;9.20;50.90;;;8.03;51.76;102353.59;12248243;19;20963;-87
2022/10/07 05:12:54;;;;;;;1.50;1.40;;;9.20;50.80;;;8.07;51.79;102365.63;12261638;19;20104;-87
2022/10/07 05:16:56;;;;;;;1.20;1.13;;;9.20;50.70;;;8.10;51.66;102370.78;12259303;19;20401;-87
2022/10/07 05:21:06;;;;;;;1.70;1.38;;;9.40;50.80;;;7.97;51.87;102358.00;12252880;19;20034;-87
2022/10/07 05:25:10;;;;;;;1.17;1.17;;;9.20;50.80;;;7.97;51.66;102360.63;12256653;19;20392;-86
2022/10/07 05:29:13;;;;;;;1.65;1.33;;;9.10;50.80;;;7.88;51.79;102349.50;12254992;19;20007;-87
2022/10/07 05:33:20;;;;;;;2.33;1.42;;;9.00;50.70;;;7.47;51.64;102286.09;12254569;19;20022;-87
2022/10/07 05:37:21;;;;;;;3.20;1.73;;;9.00;50.70;;;7.57;51.65;102321.44;12255044;19;20235;-86
2022/10/07 05:41:24;;;;;;;1.85;1.70;;;8.90;50.80;;;7.75;51.73;102348.88;12250278;19;20015;-86
2022/10/07 05:45:26;;;;;;;3.55;1.48;;;8.90;50.90;;;7.30;51.66;102287.22;12256779;19;20039;-86
2022/10/07 05:49:29;;;;;;;1.60;1.50;;;8.80;50.90;;;7.11;51.76;102258.97;12254098;19;20036;-89
2022/10/07 05:53:31;;;;;;;1.63;1.50;;;8.60;51.00;;;7.62;51.87;102352.56;12254860;19;20053;-87
2022/10/07 05:57:40;;;;;;;6.38;1.98;;;8.90;51.30;;;7.24;51.88;102289.09;12256404;19;20003;-87
2022/10/07 06:02:03;;;;;;;1.65;1.55;;;8.60;51.20;;;7.05;51.83;102257.34;12259463;19;20007;-91
2022/10/07 06:06:18;;;;;;;3.00;1.38;;;8.70;51.30;;;7.20;51.99;102277.00;12272901;19;20468;-91
2022/10/07 06:14:40;;;;;;;1.65;1.55;;;8.70;51.30;;;7.33;51.98;102299.31;12270656;19;20021;-87
2022/10/07 06:18:44;;;;;;;2.40;1.60;;;8.90;51.50;;;7.58;52.16;102341.34;12265053;19;20018;-86
2022/10/07 06:22:47;;;;;;;1.58;1.48;;;8.70;51.60;;;7.42;52.09;102309.53;12265334;19;20042;-88
2022/10/07 06:26:54;;;;;;;3.00;1.48;;;8.70;51.70;;;7.58;52.32;102338.75;12260989;19;20007;-85
2022/10/07 06:30:57;;;;;;;2.80;1.58;;;8.70;51.80;;;7.54;52.09;102324.09;12253648;19;20006;-84
2022/10/07 06:34:58;;;;;;;2.47;1.42;;;8.70;52.00;;;7.30;52.47;102274.22;12257450;19;20020;-88
2022/10/07 06:39:01;;;;;;;2.58;1.65;;;8.70;52.20;;;7.69;52.31;102328.16;12258861;19;20007;-85
2022/10/07 06:43:09;;;;;;;2.22;1.73;;;8.80;52.30;;;7.69;52.32;102312.56;12259714;19;20010;-84
2022/10/07 06:47:19;;;;;;;2.05;1.42;;;8.90;52.40;;;7.42;52.36;102261.91;12260599;19;20011;-86
2022/10/07 06:51:22;;;;;;;2.00;1.45;;;8.90;52.60;;;7.85;52.48;102324.41;12257500;19;20014;-86
2022/10/07 06:55:25;;;;;;;1.60;1.50;;;8.90;52.90;;;7.50;52.75;102247.88;12258357;19;20014;-84
2022/10/07 06:59:27;;;;;;;1.52;1.35;;;9.00;53.10;;;7.88;52.76;102316.53;12256416;19;20042;-85
2022/10/07 07:03:39;;;;;;;3.70;1.38;;;9.10;53.30;;;7.91;52.90;102300.91;12257207;19;20038;-85
2022/10/07 07:07:42;;;;;;;3.45;1.65;;;9.20;53.40;;;8.14;52.96;102326.47;12256347;19;20021;-84
2022/10/07 07:11:44;;;;;;;7.53;1.48;;;9.30;53.60;;;7.86;52.85;102268.91;12251896;19;20010;-84
2022/10/07 07:15:56;;;;;;;1.60;1.50;;;9.40;53.90;;;8.13;53.15;102298.75;12252790;19;20022;-84
2022/10/07 07:19:59;;;;;;;1.55;1.45;;;9.50;54.00;;;8.38;53.27;102321.69;12251521;19;20010;-84
2022/10/07 07:24:01;;;;;;;3.00;1.63;;;9.60;54.10;;;8.47;53.26;102312.84;12254056;19;20015;-84
2022/10/07 07:28:06;;;;;;;2.95;2.00;;;9.80;54.40;;;8.10;53.44;102227.69;12252999;19;20095;-84
2022/10/07 07:32:08;;;;;;;2.50;1.67;;;10.00;54.80;;;8.31;53.45;102235.03;12251223;19;20011;-85
2022/10/07 07:36:15;;;;;;;2.03;1.92;;;10.00;55.00;;;8.60;53.65;102257.03;12253365;19;20475;-85
2022/10/07 07:40:19;;;;;;;4.10;2.30;;;10.40;55.80;;;9.19;53.77;102314.72;12251473;19;20026;-85
2022/10/07 07:44:22;;;;;;;7.07;4.03;;;10.50;56.30;;;8.97;53.90;102241.41;12253990;19;20047;-85
2022/10/07 07:48:29;;;;;;;4.55;3.00;;;10.70;56.30;;;9.63;53.96;102304.91;12250858;19;20030;-84
2022/10/07 07:52:32;;;;;;;3.63;2.60;;;10.80;57.40;;;9.79;54.23;102283.66;12253140;19;20015;-84
2022/10/07 07:56:36;;;;;;;5.70;2.57;;;11.00;57.20;;;9.93;54.27;102266.72;12250422;19;20017;-84
2022/10/07 08:00:38;;;;;;;4.20;3.10;;;11.30;56.90;;;10.44;54.59;102309.69;12250339;19;20014;-85
2022/10/07 08:04:41;;;;;;;9.07;5.05;;;11.90;57.30;;;10.65;54.45;102299.53;12249069;19;20086;-86
2022/10/07 08:08:44;;;;;;;8.88;5.80;;;11.90;56.80;;;10.56;54.74;102233.59;12252764;19;20007;-86
2022/10/07 08:12:47;;;;;;;6.97;4.80;;;12.30;56.70;;;11.24;54.79;102296.78;12264771;19;20010;-85
2022/10/07 08:16:50;;;;;;;2.92;2.60;;;12.50;56.50;;;11.52;54.84;102296.72;12260833;19;20464;-86
2022/10/07 08:20:58;;;;;;;2.83;2.42;;;12.80;56.30;;;11.73;54.88;102284.66;12259762;19;20086;-85
2022/10/07 08:24:59;;;;;;;2.70;1.90;;;13.00;56.10;;;12.00;54.92;102277.63;12254501;19;20006;-85
2022/10/07 08:29:04;;;;;;;2.42;2.08;;;13.40;56.00;;;12.26;54.89;102273.19;12251696;19;20028;-84
2022/10/07 08:33:06;;;;;;;1.70;1.60;;;13.70;55.70;;;12.45;54.96;102250.63;12249899;19;20027;-85
2022/10/07 08:37:07;;;;;;;2.33;1.77;;;13.90;55.70;;;12.86;54.99;102270.91;12250753;19;20018;-85
2022/10/07 08:41:41;;;;;;;2.97;2.25;;;14.50;55.40;;;13.10;55.00;102261.19;12248296;19;20052;-84
2022/10/07 08:45:44;;;;;;;1.92;1.60;;;14.50;55.60;;;13.26;55.10;102234.28;12251603;19;20014;-84
2022/10/07 08:50:15;;;;;;;1.85;1.70;;;14.70;54.80;;;13.34;55.06;102201.59;12260543;19;20090;-85
2022/10/07 08:54:24;;;;;;;3.15;1.75;;;15.00;54.60;;;13.83;54.97;102236.22;12263622;19;20174;-84
2022/10/07 08:58:54;;;;;;;2.10;1.55;;;15.30;54.90;;;14.11;55.01;102239.28;12261404;19;20048;-84
2022/10/07 09:03:16;;;;;;;1.42;1.27;;;15.60;54.30;;;14.28;55.09;102227.16;12263301;19;20018;-84
2022/10/07 09:07:44;;;;;;;1.50;1.40;;;15.80;54.60;;;14.57;54.90;102217.91;12261364;19;20017;-84
2022/10/07 09:11:48;;;;;;;2.00;1.48;;;16.10;54.00;;;14.75;55.08;102206.50;12253885;19;20082;-84
2022/10/07 09:16:04;;;;;;;1.52;1.40;;;16.30;54.00;;;14.77;54.88;102164.34;12260350;19;20536;-84
2022/10/07 09:20:15;;;;;;;;;;;16.60;53.60;;;15.27;54.83;102203.03;12256439;19;20006;-84
2022/10/07 09:24:19;;;;;;;2.35;1.40;;;16.80;53.60;;;15.52;54.89;102201.78;12258782;19;19939;-85
2022/10/07 09:28:28;;;;;;;3.17;1.95;;;17.00;52.90;;;15.60;54.69;102183.78;12259230;19;20026;-84
2022/10/07 09:32:32;;;;;;;2.40;1.60;;;17.20;52.70;;;15.84;54.38;102182.50;12250350;19;20477;-84
2022/10/07 09:37:18;;;;;;;4.15;1.85;;;17.40;52.60;;;16.10;54.46;102189.00;12259077;19;20107;-82
2022/10/07 09:41:34;;;;;;;3.70;1.98;;;17.60;52.60;;;16.23;54.32;102168.09;12255201;19;20078;-83
2022/10/07 09:45:36;;;;;;;1.80;1.65;;;18.00;52.40;;;16.52;54.29;102173.47;12259017;19;20024;-82
2022/10/07 09:49:41;;;;;;;2.63;1.90;;;18.00;52.70;;;16.66;54.06;102157.75;12256182;19;20018;-83
2022/10/07 09:54:05;;;;;;;1.98;1.70;;;18.10;52.00;;;16.90;53.93;102170.44;12258664;19;20017;-86
2022/10/07 09:58:28;;;;;;;5.38;1.55;;;18.40;52.10;;;16.92;53.91;102137.75;12256585;19;20010;-86
2022/10/07 10:02:30;;;;;;;4.60;1.52;;;18.50;51.90;;;16.97;53.95;102111.94;12262698;19;20018;-87
2022/10/07 10:06:32;;;;;;;3.45;1.60;;;18.70;51.70;;;17.46;53.66;102160.91;12258353;19;20022;-85
2022/10/07 10:10:35;;;;;;;3.53;2.00;;;19.00;51.50;;;17.60;53.78;102147.69;12255854;19;20055;-84
2022/10/07 10:14:54;;;;;;;2.90;1.58;;;19.10;51.30;;;17.76;53.38;102152.88;12259225;19;20018;-86
2022/10/07 10:19:03;;;;;;;3.20;1.58;;;19.10;51.00;;;17.89;53.26;102140.63;12260775;19;20029;-85
2022/10/07 10:23:28;;;;;;;3.08;1.60;;;19.30;51.00;;;18.12;53.22;102143.63;12263803;19;20658;-85
2022/10/07 10:27:59;;;;;;;3.17;1.35;;;19.50;50.30;;;18.19;53.13;102121.09;12258501;19;20013;-85
2022/10/07 10:32:01;;;;;;;2.33;1.75;;;19.60;50.70;;;18.44;53.26;102122.13;12254359;19;20010;-87
2022/10/07 10:36:22;;;;;;;4.40;1.83;;;19.80;50.50;;;18.53;53.07;102119.72;12258214;19;20003;-86
2022/10/07 10:41:13;;;;;;;2.25;1.83;;;19.90;50.30;;;18.67;52.85;102110.88;12253799;19;20021;-87
2022/10/07 10:45:34;;;;;;;1.67;1.40;;;20.10;50.10;;;18.46;52.60;102039.06;12258891;19;20002;-88
2022/10/07 10:49:59;;;;;;;2.40;1.73;;;20.20;49.70;;;18.98;52.46;102091.16;12258475;19;20022;-88
2022/10/07 10:54:30;;;;;;;2.50;1.60;;;20.30;49.10;;;19.01;52.21;102068.91;12263213;19;20402;-88
2022/10/07 10:59:03;;;;;;;2.13;1.70;;;20.40;49.30;;;19.23;52.27;102063.78;12259799;19;20283;-88
2022/10/07 11:03:35;;;;;;;1.60;1.50;;;20.60;49.30;;;19.06;51.93;102010.31;12257476;19;20421;-88
2022/10/07 11:08:07;;;;;;;2.38;1.58;;;20.60;49.30;;;19.32;51.94;102019.91;12261727;19;20349;-88
2022/10/07 11:12:40;;;;;;;1.67;1.42;;;20.80;48.40;;;19.55;51.85;102041.25;12261618;19;20038;-88
2022/10/07 11:16:52;;;;;;;3.95;1.60;;;20.80;48.60;;;19.46;51.86;101995.91;12258831;19;20021;-86
2022/10/07 11:20:55;;;;;;;1.90;1.42;;;20.90;48.90;;;19.70;51.43;102002.22;12250056;19;20034;-87
2022/10/07 11:25:15;;;;;;;1.40;1.30;;;21.10;48.80;;;19.79;51.43;101999.72;12254188;19;20021;-87
2022/10/07 11:30:07;;;;;;;1.30;1.15;;;21.10;48.10;;;20.00;51.19;102009.72;12251126;19;20053;-86
2022/10/07 11:34:17;;;;;;;7.57;1.38;;;21.20;48.40;;;19.95;51.40;101977.38;12252793;19;20010;-87
2022/10/07 11:38:32;;;;;;;1.05;0.90;;;21.30;48.40;;;20.13;51.25;101980.47;12253463;19;20085;-86
2022/10/07 11:42:45;;;;;;;1.55;1.20;;;21.40;48.20;;;20.13;51.09;101952.13;12252940;19;20464;-87
2022/10/07 11:46:47;;;;;;;2.50;1.13;;;21.50;48.10;;;20.44;50.66;101971.88;12252431;19;20014;-87
2022/10/07 11:51:00;;;;;;;1.95;1.13;;;21.60;47.80;;;20.36;50.58;101954.81;12249257;19;20017;-86
2022/10/07 11:55:22;;;;;;;2.28;1.15;;;21.80;47.60;;;20.49;50.40;101950.25;12249811;19;20018;-87
2022/10/07 11:59:44;;;;;;;2.05;1.10;;;21.70;47.40;;;20.58;50.27;101946.94;12251674;19;20056;-86
2022/10/07 12:03:46;;;;;;;2.00;1.20;;;21.80;47.40;;;20.57;50.11;101939.09;12251968;19;20010;-86
2022/10/07 12:08:00;;;;;;;1.10;1.00;;;21.80;46.50;;;20.49;49.81;101899.84;12251856;19;20014;-87
2022/10/07 12:12:02;;;;;;;1.52;0.93;;;22.00;46.60;;;20.46;49.91;101889.47;12244234;19;20014;-85
2022/10/07 12:16:30;;;;;;;1.48;1.23;;;21.90;46.60;;;20.76;49.48;101926.88;12249888;19;20018;-85
2022/10/07 12:20:49;;;;;;;1.98;1.08;;;21.90;46.90;;;20.81;49.45;101918.56;12250996;19;20052;-85
2022/10/07 12:25:31;;;;;;;1.75;1.00;;;21.90;46.30;;;20.66;49.68;101886.13;12265270;19;20018;-86
2022/10/07 12:29:57;;;;;;;1.58;1.08;;;22.00;46.90;;;20.60;49.23;101862.69;12266903;19;20014;-86
2022/10/07 12:34:05;;;;;;;1.23;0.88;;;22.00;46.30;;;20.91;49.06;101894.78;12271773;19;20011;-87
2022/10/07 12:38:09;;;;;;;1.02;0.88;;;22.20;45.60;;;20.91;48.70;101894.78;12266251;19;20465;-86
2022/10/07 12:42:12;;;;;;;1.80;0.82;;;22.00;45.30;;;20.80;48.40;101876.22;12260751;19;20025;-85
2022/10/07 12:46:17;;;;;;;2.85;1.15;;;22.20;44.50;;;20.90;48.21;101887.78;12263085;19;20022;-85
2022/10/07 12:50:22;;;;;;;0.95;0.93;;;22.10;44.30;;;20.84;48.27;101882.97;12258784;19;20015;-85
2022/10/07 12:54:37;;;;;;;1.63;1.15;;;21.90;44.20;;;20.69;48.10;101859.34;12262803;19;20017;-85
2022/10/07 13:03:53;;;;;;;1.67;1.02;;;21.90;44.70;;;20.79;47.90;101864.72;12265558;19;20034;-85
2022/10/07 13:08:44;;;;;;;0.80;0.80;;;21.90;44.40;;;20.80;47.65;101866.44;12260682;19;20018;-85
2022/10/07 13:13:12;;;;;;;2.58;0.90;;;21.80;44.90;;;20.69;47.57;101843.41;12270597;19;20014;-85
2022/10/07 13:17:29;;;;;;;1.25;1.02;;;21.80;44.50;;;20.74;47.66;101838.56;12265238;19;20019;-85
2022/10/07 13:22:18;;;;;;;0.93;0.90;;;21.70;44.00;;;20.73;47.34;101836.03;12267642;19;20353;-85
2022/10/07 13:26:23;;;;;;;1.20;0.75;;;21.70;44.30;;;20.60;47.18;101804.31;12259769;19;20016;-86
2022/10/07 13:30:44;;;;;;;1.20;0.95;;;21.90;44.10;;;20.66;46.88;101822.41;12258108;19;20014;-85
2022/10/07 13:34:46;;;;;;;1.00;0.80;;;21.70;44.10;;;20.71;46.74;101814.94;12265867;19;20019;-86
2022/10/07 13:38:52;;;;;;;3.03;0.68;;;21.70;43.80;;;20.48;46.83;101770.78;12262972;19;20010;-86
2022/10/07 13:43:05;;;;;;;3.80;2.42;;;21.70;44.30;;;20.63;46.91;101793.47;12264685;19;20018;-85
2022/10/07 13:47:10;;;;;;;3.40;0.75;;;21.60;44.20;;;20.62;46.60;101780.31;12263000;19;20014;-85
2022/10/07 13:51:41;;;;;;;1.38;1.10;;;21.90;43.30;;;20.61;46.12;101782.13;12259023;19;20015;-85
2022/10/07 13:55:44;;;;;;;0.85;0.82;;;21.60;43.70;;;20.66;46.37;101779.94;12261539;19;20362;-85
2022/10/07 13:59:47;;;;;;;1.50;0.82;;;21.60;43.40;;;20.62;46.21;101767.03;12259810;19;20025;-85
2022/10/07 14:04:10;;;;;;;1.00;0.60;;;21.60;43.50;;;20.62;45.99;101759.91;12262767;19;20453;-87
2022/10/07 14:08:17;;;;;;;1.52;0.60;;;21.60;43.40;;;20.68;45.88;101759.41;12260468;19;20026;-85
2022/10/07 14:12:32;;;;;;;2.72;1.00;;;21.50;43.00;;;20.38;46.04;101712.28;12252905;19;20011;-86
2022/10/07 14:16:35;;;;;;;0.87;0.80;;;21.60;43.40;;;20.58;46.15;101744.34;12260293;19;20027;-87
2022/10/07 14:21:09;;;;;;;0.95;0.70;;;21.50;43.50;;;20.62;45.69;101751.97;12257252;19;20011;-86
2022/10/07 14:25:30;;;;;;;0.60;0.60;;;21.50;43.30;;;20.46;46.04;101730.25;12258524;19;20757;-86
2022/10/07 14:29:36;;;;;;;0.95;0.70;;;21.50;43.50;;;20.60;45.95;101743.25;12258495;19;20353;-86
2022/10/07 14:38:26;;;;;;;1.90;1.13;;;21.40;43.50;;;20.43;45.54;101703.97;12258914;19;20403;-85
2022/10/07 14:42:34;;;;;;;1.83;0.80;;;21.40;43.10;;;20.51;45.76;101720.94;12265459;19;20464;-84
2022/10/07 14:46:37;;;;;;;2.25;1.67;;;21.60;43.30;;;20.42;45.56;101692.53;12260318;19;20018;-86
2022/10/07 14:50:41;;;;;;;1.00;0.90;;;21.60;43.20;;;20.48;45.22;101693.84;12263814;19;20018;-85
2022/10/07 14:54:43;;;;;;;3.50;0.80;;;21.30;43.10;;;20.27;45.33;101660.09;12261204;19;20026;-86
2022/10/07 14:58:44;;;;;;;1.48;1.00;;;21.40;43.20;;;20.52;45.05;101698.78;12260961;19;20452;-86
2022/10/07 15:02:49;;;;;;;1.30;0.80;;;21.40;43.20;;;20.40;45.30;101675.88;12258984;19;20002;-86
2022/10/07 15:06:50;;;;;;;2.55;0.90;;;21.40;43.10;;;20.41;45.43;101674.06;12254742;19;20369;-86
2022/10/07 15:10:52;;;;;;;1.38;0.90;;;21.30;43.40;;;20.47;45.06;101681.53;12253748;19;20370;-86
2022/10/07 15:14:53;;;;;;;1.15;0.68;;;21.40;43.30;;;20.45;45.37;101672.84;12255747;19;20029;-85
2022/10/07 15:18:55;;;;;;;1.13;0.73;;;21.20;43.30;;;20.33;45.19;101648.16;12253178;19;20014;-85
2022/10/07 15:22:56;;;;;;;2.28;0.88;;;21.40;43.50;;;20.25;45.12;101632.88;12253930;19;20014;-85
2022/10/07 15:26:58;;;;;;;1.13;1.02;;;21.40;43.80;;;20.43;44.96;101665.00;12252246;19;20074;-86
2022/10/07 15:31:09;;;;;;;1.67;1.20;;;21.20;43.30;;;20.29;44.85;101660.00;12244985;19;20024;-85
2022/10/07 15:35:11;;;;;;;0.90;0.60;;;21.20;43.40;;;20.38;44.71;101666.34;12252836;19;20100;-86
2022/10/07 15:39:15;;;;;;;1.52;0.85;;;21.20;43.50;;;20.26;45.13;101653.13;12248146;19;20014;-85
2022/10/07 15:43:17;;;;;;;1.92;1.02;;;21.10;43.40;;;19.93;44.68;101602.81;12255215;19;20040;-86
2022/10/07 15:47:19;;;;;;;1.38;0.80;;;21.10;43.20;;;20.07;44.59;101626.44;12255509;19;20027;-84
2022/10/07 15:51:24;;;;;;;7.22;3.92;;;21.00;43.10;;;20.23;44.65;101652.56;12249874;19;20015;-85
2022/10/07 15:55:25;;;;;;;9.52;5.40;;;21.00;43.50;;;20.23;44.74;101649.91;12251898;19;20018;-83
2022/10/07 15:59:27;;;;;;;5.15;3.45;;;21.00;43.70;;;20.19;44.64;101653.75;12252527;19;20010;-85
2022/10/07 16:03:37;;;;;;;3.63;2.05;;;20.90;43.80;;;20.06;44.97;101637.97;12252599;19;20041;-85
2022/10/07 16:07:39;;;;;;;3.70;1.40;;;20.90;44.00;;;19.97;44.73;101639.56;12251040;19;20042;-85
2022/10/07 16:11:40;;;;;;;1.70;1.13;;;21.00;44.30;;;19.89;44.98;101642.84;12250652;19;20042;-85
2022/10/07 16:15:42;;;;;;;1.77;1.00;;;20.90;44.20;;;19.70;44.87;101632.03;12252126;19;20007;-85
2022/10/07 16:19:44;;;;;;;0.95;0.88;;;20.60;44.20;;;19.63;44.78;101649.31;12246513;19;20043;-85
2022/10/07 16:23:46;;;;;;;1.42;0.90;;;20.70;44.50;;;19.39;44.85;101629.13;12253460;19;20030;-85
2022/10/07 16:32:09;;;;;;;3.83;0.98;;;20.20;44.60;;;19.14;45.00;101640.75;12250191;19;20334;-86
2022/10/07 16:36:13;;;;;;;1.45;0.82;;;20.00;44.80;;;19.08;44.90;101649.16;12250804;19;20010;-86
2022/10/07 16:40:14;;;;;;;1.20;0.98;;;19.80;44.90;;;18.79;44.96;101603.72;12244220;19;20015;-85
2022/10/07 16:44:16;;;;;;;1.45;0.75;;;19.70;44.90;;;18.84;45.02;101641.28;12252096;19;20014;-85
2022/10/07 16:48:17;;;;;;;1.58;0.95;;;19.80;45.00;;;18.65;45.23;101617.97;12256552;19;20025;-85
2022/10/07 16:52:19;;;;;;;1.67;0.90;;;19.40;44.90;;;18.42;44.98;101600.34;12252877;19;20468;-86
2022/10/07 16:56:22;;;;;;;0.90;0.73;;;19.50;44.80;;;18.39;44.86;101624.34;12256538;19;20007;-85
2022/10/07 17:00:23;;;;;;;0.90;0.70;;;19.20;44.90;;;18.29;45.21;101626.84;12250667;19;20011;-85
2022/10/07 17:04:25;;;;;;;1.40;0.98;;;19.00;45.10;;;18.23;45.22;101643.16;12257072;19;20017;-85
2022/10/07 17:08:33;;;;;;;1.25;0.75;;;18.90;45.20;;;18.00;45.16;101627.16;12261555;19;20424;-85
2022/10/07 17:12:36;;;;;;;2.65;1.10;;;19.00;45.50;;;17.99;45.22;101635.22;12263533;19;20006;-87
2022/10/07 17:16:42;;;;;;;1.30;1.20;;;18.80;45.60;;;17.90;45.22;101631.41;12270135;19;20014;-85
2022/10/07 17:20:48;;;;;;;3.35;1.98;;;18.50;45.60;;;17.69;45.37;101608.19;12263419;19;20351;-85
2022/10/07 17:24:51;;;;;;;15.80;6.78;;;18.40;45.80;;;17.55;45.46;101587.22;12273574;19;20026;-87
2022/10/07 17:29:06;;;;;;;20.83;9.55;;;18.50;45.80;;;17.46;45.28;101608.97;12270259;19;20018;-86
2022/10/07 17:33:08;;;;;;;10.20;6.38;;;18.20;45.80;;;17.48;45.51;101634.31;12266746;19;20015;-86